Time;durP1;ratioP1;P1;durP2;ratioP2;P2;SDS_P1;SDS_P2;PMS_P1;PMS_P2;Temp;Humidity;BMP_temperature;BMP_pressure;BME280_temperature;BME280_humidity;BME280_pressure;Samples;Min_cycle;Max_cycle;Signal;HPM_P1;HPM_P2
2023/12/08 00:03:06;;;;;;;87.10;29.20;;;;;;;-1.62;100.00;100358.91;106383;1259;60182;-65
2023/12/08 00:05:53;;;;;;;92.40;30.70;;;;;;;-1.60;100.00;100363.23;105935;1256;59843;-67
2023/12/08 00:08:41;;;;;;;92.30;32.00;;;;;;;-1.59;100.00;100359.90;106123;1251;72039;-68
2023/12/08 00:11:28;;;;;;;85.10;29.70;;;;;;;-1.57;100.00;100351.15;106181;1257;69435;-65
2023/12/08 00:14:14;;;;;;;87.10;28.70;;;;;;;-1.57;100.00;100357.05;106153;1255;74122;-65
2023/12/08 00:17:01;;;;;;;92.20;32.20;;;;;;;-1.58;100.00;100355.87;105993;1252;59349;-65
2023/12/08 00:19:47;;;;;;;85.10;28.60;;;;;;;-1.60;100.00;100360.94;105907;1256;59285;-65
2023/12/08 00:22:35;;;;;;;69.70;24.40;;;;;;;-1.60;100.00;100359.21;106182;1251;72006;-67
2023/12/08 00:25:22;;;;;;;96.70;30.80;;;;;;;-1.60;100.00;100360.25;105829;1259;68192;-66
2023/12/08 00:28:09;;;;;;;90.10;27.40;;;;;;;-1.58;100.00;100363.34;106042;1257;73272;-66
2023/12/08 00:30:56;;;;;;;95.40;29.80;;;;;;;-1.57;100.00;100366.81;105822;1251;59237;-65
2023/12/08 00:33:43;;;;;;;87.10;27.70;;;;;;;-1.57;100.00;100363.84;106091;1255;59546;-67
2023/12/08 00:36:30;;;;;;;92.40;30.00;;;;;;;-1.57;100.00;100356.20;105826;1251;70816;-68
2023/12/08 00:39:17;;;;;;;86.70;27.80;;;;;;;-1.57;100.00;100351.48;106011;1251;67070;-68
2023/12/08 00:42:04;;;;;;;96.70;30.80;;;;;;;-1.57;100.00;100357.92;105846;1251;72742;-64
2023/12/08 00:44:51;;;;;;;89.20;29.80;;;;;;;-1.57;100.00;100363.33;106035;1256;59349;-67
2023/12/08 00:47:38;;;;;;;100.00;30.20;;;;;;;-1.58;100.00;100367.34;106110;1251;61834;-67
2023/12/08 00:50:25;;;;;;;98.90;30.40;;;;;;;-1.58;100.00;100369.27;105940;1255;73939;-67
2023/12/08 00:53:13;;;;;;;89.20;29.20;;;;;;;-1.57;100.00;100373.05;106087;1253;69466;-65
2023/12/08 00:55:59;;;;;;;78.50;24.30;;;;;;;-1.59;100.00;100368.23;105881;1251;73081;-67
2023/12/08 00:58:47;;;;;;;82.20;25.00;;;;;;;-1.60;100.00;100359.90;106921;1251;59208;-66
2023/12/08 01:01:34;;;;;;;100.00;30.90;;;;;;;-1.59;100.00;100360.06;105983;1257;60561;-64
2023/12/08 01:04:21;;;;;;;90.50;28.70;;;;;;;-1.58;100.00;100361.42;105197;1257;1003206;-64
2023/12/08 01:07:10;;;;;;;90.90;27.80;;;;;;;-1.56;100.00;100363.14;106189;1255;68433;-64
2023/12/08 01:09:56;;;;;;;90.10;28.50;;;;;;;-1.55;100.00;100359.98;105978;1257;73191;-68
2023/12/08 01:12:44;;;;;;;95.50;31.50;;;;;;;-1.55;100.00;100355.80;105969;1252;59336;-65
2023/12/08 01:15:31;;;;;;;99.30;30.10;;;;;;;-1.53;100.00;100362.21;106073;1257;59985;-65
2023/12/08 01:18:17;;;;;;;96.50;31.40;;;;;;;-1.55;100.00;100365.89;106138;1251;71498;-64
2023/12/08 01:21:05;;;;;;;95.80;31.00;;;;;;;-1.57;100.00;100367.66;105807;1258;68403;-65
2023/12/08 01:23:52;;;;;;;97.10;28.40;;;;;;;-1.58;100.00;100366.48;106198;1251;73184;-67
2023/12/08 01:26:44;;;;;;;80.90;26.10;;;;;;;-1.58;100.00;100368.91;105721;1254;59291;-64
2023/12/08 01:29:30;;;;;;;96.40;29.30;;;;;;;-1.60;100.00;100365.67;105811;1255;61598;-64
2023/12/08 01:32:17;;;;;;;106.70;32.90;;;;;;;-1.61;100.00;100363.24;106166;1251;72687;-67
2023/12/08 01:35:04;;;;;;;101.40;32.90;;;;;;;-1.60;100.00;100360.08;106105;1257;69384;-65
2023/12/08 01:37:51;;;;;;;91.10;28.40;;;;;;;-1.59;100.00;100355.54;106040;1254;72871;-65
2023/12/08 01:40:41;;;;;;;101.10;30.00;;;;;;;-1.60;100.00;100357.83;105626;1259;59315;-66
2023/12/08 01:43:28;;;;;;;98.70;30.20;;;;;;;-1.59;100.00;100360.77;105730;1257;60877;-64
2023/12/08 01:46:18;;;;;;;97.20;29.60;;;;;;;-1.59;100.00;100360.77;106151;1251;72896;-64
2023/12/08 01:49:05;;;;;;;92.80;31.00;;;;;;;-1.57;100.00;100363.83;105869;1251;68502;-67
2023/12/08 01:51:53;;;;;;;86.80;27.30;;;;;;;-1.51;100.00;100361.45;105739;1260;72939;-65
2023/12/08 01:54:40;;;;;;;103.50;30.00;;;;;;;-1.52;100.00;100365.83;105941;1256;59323;-65
2023/12/08 01:57:27;;;;;;;98.60;32.00;;;;;;;-1.57;100.00;100364.89;105963;1260;61875;-65
2023/12/08 02:00:16;;;;;;;94.80;31.20;;;;;;;-1.59;100.00;100359.92;105790;1256;73558;-64
2023/12/08 02:03:03;;;;;;;109.90;32.60;;;;;;;-1.62;100.00;100364.66;105669;1256;68233;-64
2023/12/08 02:05:51;;;;;;;98.70;31.40;;;;;;;-1.66;100.00;100363.88;106083;1251;72484;-65
2023/12/08 02:08:38;;;;;;;80.90;24.90;;;;;;;-1.67;100.00;100366.01;105936;1251;59208;-65
2023/12/08 02:11:26;;;;;;;102.30;31.50;;;;;;;-1.68;100.00;100366.36;106155;1251;60882;-67
2023/12/08 02:14:15;;;;;;;97.10;30.10;;;;;;;-1.68;100.00;100367.07;105912;1251;71319;-67
2023/12/08 02:17:18;;;;;;;104.10;32.40;;;;;;;-1.67;100.00;100367.56;106340;1257;69476;-66
2023/12/08 02:20:11;;;;;;;85.50;29.80;;;;;;;-1.66;100.00;100363.00;105919;1252;73342;-69
2023/12/08 02:22:58;;;;;;;92.00;29.60;;;;;;;-1.67;100.00;100367.72;105852;1252;59259;-68
2023/12/08 02:25:45;;;;;;;82.00;25.00;;;;;;;-1.67;100.00;100364.61;105989;1257;61047;-68
2023/12/08 02:28:33;;;;;;;93.60;28.50;;;;;;;-1.68;100.00;100358.89;105820;1252;72896;-64
2023/12/08 02:31:27;;;;;;;89.40;27.10;;;;;;;-1.68;100.00;100355.57;105982;1256;68460;-67
2023/12/08 02:34:19;;;;;;;75.70;22.80;;;;;;;-1.68;100.00;100362.19;105657;1263;74023;-66
2023/12/08 02:37:08;;;;;;;83.50;26.20;;;;;;;-1.70;100.00;100370.58;105980;1256;60228;-66
2023/12/08 02:39:58;;;;;;;70.20;23.70;;;;;;;-1.68;100.00;100365.84;106105;1259;60630;-66
2023/12/08 02:42:46;;;;;;;66.70;23.50;;;;;;;-1.70;100.00;100373.20;106033;1257;73777;-65
2023/12/08 02:45:33;;;;;;;74.00;23.80;;;;;;;-1.72;100.00;100365.05;106152;1256;67268;-66
2023/12/08 02:48:20;;;;;;;66.90;22.90;;;;;;;-1.73;100.00;100372.03;106049;1251;73975;-66
2023/12/08 02:51:08;;;;;;;71.70;22.90;;;;;;;-1.74;100.00;100376.92;106004;1257;59346;-65
2023/12/08 02:53:55;;;;;;;70.00;23.90;;;;;;;-1.73;100.00;100376.38;105877;1256;61972;-69
2023/12/08 02:56:44;;;;;;;75.20;24.40;;;;;;;-1.69;100.00;100372.65;106148;1251;71546;-65
2023/12/08 02:59:32;;;;;;;53.20;18.20;;;;;;;-1.67;100.00;100371.39;105866;1257;68544;-67
2023/12/08 03:02:20;;;;;;;66.30;23.60;;;;;;;-1.69;100.00;100374.90;105596;1261;72041;-65
2023/12/08 03:05:07;;;;;;;66.80;23.10;;;;;;;-1.71;100.00;100375.30;105552;1257;60168;-66
2023/12/08 03:07:54;;;;;;;59.00;20.20;;;;;;;-1.72;100.00;100381.23;105699;1260;59397;-65
2023/12/08 03:10:41;;;;;;;64.30;21.70;;;;;;;-1.71;100.00;100389.22;105418;1258;73322;-66
2023/12/08 03:13:28;;;;;;;67.10;20.80;;;;;;;-1.72;100.00;100390.11;105690;1258;66747;-66
2023/12/08 03:16:16;;;;;;;68.10;22.40;;;;;;;-1.72;100.00;100392.36;105256;1257;73367;-65
2023/12/08 03:19:03;;;;;;;55.20;19.90;;;;;;;-1.73;100.00;100381.96;105649;1262;59311;-65
2023/12/08 03:21:51;;;;;;;64.00;19.70;;;;;;;-1.71;100.00;100379.65;105512;1261;59785;-66
2023/12/08 03:24:38;;;;;;;62.50;22.50;;;;;;;-1.69;100.00;100374.21;105479;1261;73685;-65
2023/12/08 03:27:25;;;;;;;65.20;22.00;;;;;;;-1.68;100.00;100376.80;105471;1260;67269;-66
2023/12/08 03:30:13;;;;;;;70.10;21.30;;;;;;;-1.69;100.00;100368.48;105569;1262;73292;-67
2023/12/08 03:33:00;;;;;;;60.80;20.30;;;;;;;-1.64;100.00;100373.08;105991;1251;59662;-66
2023/12/08 03:35:47;;;;;;;59.20;18.90;;;;;;;-1.64;100.00;100371.48;106153;1256;60904;-65
2023/12/08 03:38:35;;;;;;;62.10;21.60;;;;;;;-1.63;100.00;100371.81;105989;1255;72130;-65
2023/12/08 03:41:22;;;;;;;57.40;18.40;;;;;;;-1.65;100.00;100367.50;105889;1251;68162;-63
2023/12/08 03:44:09;;;;;;;58.90;19.00;;;;;;;-1.64;100.00;100366.45;105816;1251;71778;-64
2023/12/08 03:46:55;;;;;;;74.70;23.80;;;;;;;-1.64;100.00;100362.98;106020;1253;59268;-63
2023/12/08 03:49:42;;;;;;;67.90;22.40;;;;;;;-1.61;100.00;100355.95;106110;1256;61841;-65
2023/12/08 03:52:29;;;;;;;71.50;23.20;;;;;;;-1.59;100.00;100352.60;106003;1251;72891;-66
2023/12/08 03:55:16;;;;;;;71.10;22.20;;;;;;;-1.58;100.00;100352.20;106170;1253;68244;-67
2023/12/08 03:58:03;;;;;;;61.00;19.40;;;;;;;-1.57;100.00;100351.48;106184;1251;71824;-67
2023/12/08 04:00:49;;;;;;;68.90;23.80;;;;;;;-1.57;100.00;100351.31;105856;1259;59237;-66
2023/12/08 04:03:39;;;;;;;75.70;24.30;;;;;;;-1.57;100.00;100349.21;105848;1254;60752;-67
2023/12/08 04:06:26;;;;;;;76.40;24.00;;;;;;;-1.57;100.00;100344.16;106408;1252;72729;-64
2023/12/08 04:09:14;;;;;;;82.00;23.20;;;;;;;-1.57;100.00;100340.52;106043;1257;67040;-67
2023/12/08 04:12:01;;;;;;;73.50;22.30;;;;;;;-1.58;100.00;100336.55;105783;1259;73640;-67
2023/12/08 04:14:48;;;;;;;67.20;21.60;;;;;;;-1.56;100.00;100326.23;105681;1254;59621;-66
2023/12/08 04:17:35;;;;;;;72.90;22.20;;;;;;;-1.53;100.00;100326.16;105910;1258;60994;-64
2023/12/08 04:20:23;;;;;;;69.70;22.00;;;;;;;-1.49;100.00;100322.42;105877;1254;72888;-65
2023/12/08 04:23:10;;;;;;;65.50;22.10;;;;;;;-1.49;100.00;100324.86;106135;1251;68442;-67
2023/12/08 04:25:56;;;;;;;64.50;20.80;;;;;;;-1.53;100.00;100323.38;105688;1251;73939;-67
2023/12/08 04:28:45;;;;;;;64.00;21.40;;;;;;;-1.56;100.00;100326.42;105772;1257;59285;-65
2023/12/08 04:31:32;;;;;;;71.70;23.30;;;;;;;-1.56;100.00;100326.23;105737;1254;59840;-65
2023/12/08 04:34:19;;;;;;;76.60;24.40;;;;;;;-1.56;100.00;100321.36;105582;1254;73047;-66
2023/12/08 04:37:06;;;;;;;74.30;22.10;;;;;;;-1.56;100.00;100327.45;105498;1260;68210;-67
2023/12/08 04:39:53;;;;;;;83.10;25.70;;;;;;;-1.57;100.00;100326.96;105928;1256;73342;-66
2023/12/08 04:42:40;;;;;;;84.20;26.50;;;;;;;-1.58;100.00;100324.57;105756;1254;59353;-65
2023/12/08 04:45:27;;;;;;;83.70;24.20;;;;;;;-1.59;100.00;100328.23;105892;1260;60739;-66
2023/12/08 04:48:14;;;;;;;87.80;26.30;;;;;;;-1.60;100.00;100331.03;105785;1255;73925;-67
2023/12/08 04:51:04;;;;;;;90.20;26.20;;;;;;;-1.63;100.00;100325.88;105774;1260;68113;-66
2023/12/08 04:53:51;;;;;;;82.10;27.00;;;;;;;-1.63;100.00;100325.02;105846;1254;71975;-67
2023/12/08 04:56:41;;;;;;;84.80;26.10;;;;;;;-1.68;100.00;100325.98;105882;1259;59189;-66
2023/12/08 04:59:28;;;;;;;87.30;26.20;;;;;;;-1.68;100.00;100333.48;105900;1257;59272;-65
2023/12/08 05:02:15;;;;;;;93.30;28.90;;;;;;;-1.67;100.00;100333.28;105746;1260;72474;-65
2023/12/08 05:05:03;;;;;;;87.00;27.50;;;;;;;-1.68;100.00;100332.44;106173;1252;66653;-65
2023/12/08 05:07:50;;;;;;;82.40;25.20;;;;;;;-1.74;100.00;100320.21;105736;1254;73843;-67
2023/12/08 05:10:36;;;;;;;90.40;26.70;;;;;;;-1.72;100.00;100325.38;105715;1251;60964;-67
2023/12/08 05:13:24;;;;;;;95.60;28.10;;;;;;;-1.74;100.00;100323.34;105856;1254;59815;-66
2023/12/08 05:16:12;;;;;;;108.80;30.20;;;;;;;-1.72;100.00;100323.30;106181;1251;73665;-67
2023/12/08 05:18:59;;;;;;;107.00;30.60;;;;;;;-1.72;100.00;100327.82;105826;1253;67981;-67
2023/12/08 05:21:46;;;;;;;104.80;31.30;;;;;;;-1.70;100.00;100327.94;105822;1259;73531;-67
2023/12/08 05:24:33;;;;;;;99.30;30.50;;;;;;;-1.70;100.00;100323.77;106001;1254;59410;-65
2023/12/08 05:27:20;;;;;;;101.10;29.00;;;;;;;-1.72;100.00;100319.65;105772;1257;59440;-65
2023/12/08 05:30:08;;;;;;;99.60;30.00;;;;;;;-1.75;100.00;100309.95;105873;1252;72855;-66
2023/12/08 05:32:57;;;;;;;94.90;30.10;;;;;;;-1.71;100.00;100315.27;105752;1254;68329;-66
2023/12/08 05:35:44;;;;;;;102.90;30.50;;;;;;;-1.69;100.00;100325.67;105899;1253;71990;-67
2023/12/08 05:38:31;;;;;;;88.00;26.30;;;;;;;-1.69;100.00;100328.28;105944;1256;59784;-66
2023/12/08 05:41:18;;;;;;;105.80;31.60;;;;;;;-1.75;100.00;100330.85;105988;1260;59793;-65
2023/12/08 05:44:05;;;;;;;107.10;30.80;;;;;;;-1.80;100.00;100336.35;106087;1252;72869;-67
2023/12/08 05:46:52;;;;;;;103.90;31.00;;;;;;;-1.83;100.00;100331.38;106980;1256;67136;-65
2023/12/08 05:49:39;;;;;;;101.40;30.20;;;;;;;-1.86;100.00;100322.41;106939;1250;73421;-66
2023/12/08 05:52:27;;;;;;;90.50;27.10;;;;;;;-1.82;100.00;100325.10;106596;1257;60625;-65
2023/12/08 05:55:14;;;;;;;92.10;28.00;;;;;;;-1.82;100.00;100325.61;106954;1254;61867;-67
2023/12/08 05:58:00;;;;;;;99.20;30.40;;;;;;;-1.81;100.00;100320.91;106878;1251;72753;-66
2023/12/08 06:00:49;;;;;;;105.60;32.00;;;;;;;-1.80;100.00;100324.17;107262;1254;67457;-66
2023/12/08 06:03:35;;;;;;;94.00;27.30;;;;;;;-1.81;100.00;100327.16;106414;1251;1003030;-70
2023/12/08 06:06:23;;;;;;;101.40;29.50;;;;;;;-1.83;100.00;100327.56;106664;1252;60158;-66
2023/12/08 06:09:10;;;;;;;97.30;30.90;;;;;;;-1.83;100.00;100324.08;105914;1251;60659;-64
2023/12/08 06:11:57;;;;;;;91.80;28.80;;;;;;;-1.85;100.00;100325.51;106460;1251;73878;-68
2023/12/08 06:14:44;;;;;;;98.90;31.40;;;;;;;-1.87;100.00;100326.08;106292;1251;67513;-65
2023/12/08 06:17:31;;;;;;;81.10;24.50;;;;;;;-1.93;100.00;100320.10;106892;1254;72910;-66
2023/12/08 06:20:17;;;;;;;95.90;29.40;;;;;;;-1.94;100.00;100321.02;106884;1253;59227;-68
2023/12/08 06:23:04;;;;;;;101.70;31.30;;;;;;;-1.97;100.00;100326.11;106729;1254;60035;-65
2023/12/08 06:25:51;;;;;;;105.60;30.90;;;;;;;-1.99;100.00;100324.60;106956;1251;73665;-65
2023/12/08 06:28:38;;;;;;;104.60;32.10;;;;;;;-2.05;100.00;100332.02;107188;1250;68418;-69
2023/12/08 06:31:25;;;;;;;94.90;30.30;;;;;;;-2.11;100.00;100329.73;106676;1251;1003087;-68
2023/12/08 06:34:13;;;;;;;91.00;29.10;;;;;;;-2.16;100.00;100330.52;106892;1251;59323;-67
2023/12/08 06:37:03;;;;;;;99.60;31.70;;;;;;;-2.21;100.00;100328.71;106378;1254;59877;-65
2023/12/08 06:39:52;;;;;;;84.60;27.50;;;;;;;-2.26;100.00;100326.56;106660;1251;72911;-65
2023/12/08 06:42:40;;;;;;;101.60;31.30;;;;;;;-2.28;100.00;100331.29;106359;1254;69400;-65
2023/12/08 06:45:27;;;;;;;98.30;30.90;;;;;;;-2.28;100.00;100332.48;106104;1256;72170;-69
2023/12/08 06:48:14;;;;;;;92.40;31.20;;;;;;;-2.29;100.00;100337.04;106081;1257;59230;-66
2023/12/08 06:51:03;;;;;;;88.50;28.80;;;;;;;-2.31;100.00;100339.68;105982;1254;60698;-66
2023/12/08 06:53:50;;;;;;;97.20;30.70;;;;;;;-2.32;100.00;100346.32;106169;1254;72713;-65
2023/12/08 06:56:44;;;;;;;87.90;27.80;;;;;;;-2.36;100.00;100352.30;105836;1259;67393;-66
2023/12/08 06:59:31;;;;;;;90.00;27.70;;;;;;;-2.38;100.00;100356.35;106160;1254;73095;-67
2023/12/08 07:02:18;;;;;;;97.30;29.30;;;;;;;-2.40;100.00;100356.90;106044;1257;59316;-65
2023/12/08 07:05:06;;;;;;;103.50;31.10;;;;;;;-2.40;100.00;100353.94;106021;1251;60954;-67
2023/12/08 07:07:56;;;;;;;102.50;30.40;;;;;;;-2.35;100.00;100350.21;105751;1260;73855;-67
2023/12/08 07:10:44;;;;;;;100.00;31.90;;;;;;;-2.31;100.00;100350.80;106453;1251;66696;-67
2023/12/08 07:13:31;;;;;;;98.70;29.90;;;;;;;-2.28;100.00;100347.10;106324;1251;72509;-66
2023/12/08 07:16:18;;;;;;;100.40;29.90;;;;;;;-2.27;100.00;100338.23;105625;1260;59288;-67
2023/12/08 07:19:06;;;;;;;99.10;31.70;;;;;;;-2.28;100.00;100333.38;106418;1254;59409;-68
2023/12/08 07:21:53;;;;;;;98.10;31.40;;;;;;;-2.29;100.00;100327.48;105891;1257;69850;-69
2023/12/08 07:24:40;;;;;;;93.60;30.10;;;;;;;-2.32;100.00;100322.35;106074;1254;67447;-67
2023/12/08 07:27:27;;;;;;;99.60;31.10;;;;;;;-2.37;100.00;100319.12;105962;1251;73076;-68
2023/12/08 07:30:15;;;;;;;92.40;28.70;;;;;;;-2.38;100.00;100319.85;106143;1251;59259;-70
2023/12/08 07:33:03;;;;;;;97.00;30.40;;;;;;;-2.40;100.00;100315.34;106177;1254;59738;-67
2023/12/08 07:35:51;;;;;;;84.80;29.80;;;;;;;-2.39;100.00;100313.41;106300;1251;72875;-66
2023/12/08 07:38:38;;;;;;;97.30;28.70;;;;;;;-2.37;100.00;100310.45;106204;1254;68441;-66
2023/12/08 07:41:25;;;;;;;97.90;29.00;;;;;;;-2.36;100.00;100318.08;106023;1257;74460;-67
2023/12/08 07:44:12;;;;;;;97.10;29.90;;;;;;;-2.36;100.00;100320.86;105914;1252;59316;-71
2023/12/08 07:46:59;;;;;;;97.20;31.50;;;;;;;-2.38;100.00;100318.63;106497;1251;61275;-69
2023/12/08 07:49:46;;;;;;;95.80;31.20;;;;;;;-2.40;100.00;100324.73;106622;1251;72815;-67
2023/12/08 07:52:34;;;;;;;84.80;27.20;;;;;;;-2.39;100.00;100329.95;105888;1250;66958;-69
2023/12/08 07:55:21;;;;;;;88.10;30.00;;;;;;;-2.37;100.00;100335.82;106217;1252;74164;-68
2023/12/08 07:58:07;;;;;;;80.90;26.90;;;;;;;-2.35;100.00;100339.08;106102;1257;59330;-68
2023/12/08 08:00:54;;;;;;;86.20;26.50;;;;;;;-2.36;100.00;100338.06;105848;1255;60688;-69
2023/12/08 08:03:42;;;;;;;90.80;29.10;;;;;;;-2.36;100.00;100328.85;105107;1251;1003662;-67
2023/12/08 08:06:28;;;;;;;86.60;28.90;;;;;;;-2.38;100.00;100333.05;105839;1254;69529;-69
2023/12/08 08:09:17;;;;;;;77.00;24.90;;;;;;;-2.39;100.00;100330.29;106265;1251;71658;-65
2023/12/08 08:12:05;;;;;;;81.40;28.10;;;;;;;-2.39;100.00;100325.77;105951;1251;60057;-68
2023/12/08 08:14:52;;;;;;;83.00;28.40;;;;;;;-2.35;100.00;100328.30;105853;1251;228568;-67
2023/12/08 08:17:39;;;;;;;79.70;28.70;;;;;;;-2.34;100.00;100327.94;105580;1254;1003071;-69
2023/12/08 08:20:25;;;;;;;65.10;22.30;;;;;;;-2.34;100.00;100325.85;106152;1251;68263;-68
2023/12/08 08:23:14;;;;;;;75.70;28.40;;;;;;;-2.36;100.00;100327.28;106246;1251;71984;-65
2023/12/08 08:26:02;;;;;;;76.20;25.00;;;;;;;-2.37;100.00;100328.36;107199;1251;59419;-70
2023/12/08 08:28:49;;;;;;;77.10;27.00;;;;;;;-2.37;100.00;100326.27;106239;1254;61772;-68
2023/12/08 08:31:36;;;;;;;75.10;27.50;;;;;;;-2.37;100.00;100331.65;105895;1254;71181;-67
2023/12/08 08:34:23;;;;;;;56.00;21.00;;;;;;;-2.43;100.00;100338.88;105979;1251;66521;-66
2023/12/08 08:37:10;;;;;;;60.90;22.90;;;;;;;-2.45;100.00;100345.00;106589;1251;73009;-68
2023/12/08 08:39:57;;;;;;;74.70;25.80;;;;;;;-2.49;100.00;100348.21;106376;1254;59346;-68
2023/12/08 08:42:44;;;;;;;74.70;26.60;;;;;;;-2.49;100.00;100348.91;106696;1251;59728;-68
2023/12/08 08:45:31;;;;;;;75.70;27.80;;;;;;;-2.47;100.00;100348.52;107131;1251;72087;-68
2023/12/08 08:48:18;;;;;;;79.00;26.20;;;;;;;-2.45;100.00;100348.14;107036;1251;67122;-70
2023/12/08 08:51:07;;;;;;;76.60;27.40;;;;;;;-2.40;100.00;100345.61;106599;1251;71861;-67
2023/12/08 08:53:54;;;;;;;77.70;26.80;;;;;;;-2.36;100.00;100340.67;106381;1250;59196;-70
2023/12/08 08:56:42;;;;;;;67.00;24.70;;;;;;;-2.31;100.00;100333.77;107212;1250;59794;-69
2023/12/08 08:59:29;;;;;;;87.10;29.50;;;;;;;-2.30;100.00;100333.58;107672;1250;70817;-67
2023/12/08 09:02:16;;;;;;;83.10;27.20;;;;;;;-2.32;100.00;100326.86;107202;1251;68539;-70
2023/12/08 09:05:04;;;;;;;74.70;26.70;;;;;;;-2.32;100.00;100321.29;106664;1250;72880;-68
2023/12/08 09:07:51;;;;;;;64.10;22.50;;;;;;;-2.32;100.00;100311.90;106576;1251;59266;-65
2023/12/08 09:10:40;;;;;;;73.10;26.30;;;;;;;-2.31;100.00;100299.71;107073;1253;60751;-69
2023/12/08 09:13:29;;;;;;;70.40;25.20;;;;;;;-2.26;100.00;100287.80;107316;1251;72082;-70
2023/12/08 09:16:16;;;;;;;74.30;26.80;;;;;;;-2.25;100.00;100279.23;106659;1251;68555;-71
2023/12/08 09:19:03;;;;;;;80.30;27.60;;;;;;;-2.27;100.00;100291.63;106948;1251;73225;-66
2023/12/08 09:21:50;;;;;;;84.00;27.40;;;;;;;-2.25;100.00;100300.29;107481;1251;59317;-68
2023/12/08 09:24:40;;;;;;;69.60;25.80;;;;;;;-2.28;100.00;100296.16;109530;1250;59118;-70
2023/12/08 09:27:27;;;;;;;75.20;26.30;;;;;;;-2.26;100.00;100293.36;109758;1250;72056;-69
2023/12/08 09:30:14;;;;;;;62.70;22.30;;;;;;;-2.25;100.00;100290.55;109715;1250;67197;-70
2023/12/08 09:33:00;;;;;;;79.80;26.90;;;;;;;-2.20;100.00;100292.89;109484;1251;71332;-71
2023/12/08 09:35:47;;;;;;;77.50;27.00;;;;;;;-2.15;100.00;100288.42;109570;1251;57275;-68
2023/12/08 09:38:34;;;;;;;73.10;26.20;;;;;;;-2.18;100.00;100286.92;109522;1253;60223;-71
2023/12/08 09:41:21;;;;;;;73.40;26.30;;;;;;;-2.17;100.00;100282.20;108915;1250;1002823;-70
2023/12/08 09:44:13;;;;;;;70.30;25.80;;;;;;;-2.15;100.00;100287.91;109577;1251;67485;-70
2023/12/08 09:47:06;;;;;;;66.40;24.80;;;;;;;-2.17;100.00;100286.91;109544;1251;71281;-69
2023/12/08 09:49:55;;;;;;;77.50;25.90;;;;;;;-2.21;100.00;100288.20;109564;1251;56878;-69
2023/12/08 09:52:44;;;;;;;77.20;26.80;;;;;;;-2.26;100.00;100281.18;109685;1250;60459;-68
2023/12/08 09:55:32;;;;;;;75.50;25.80;;;;;;;-2.26;100.00;100282.75;109657;1251;73214;-68
2023/12/08 09:58:21;;;;;;;76.20;28.10;;;;;;;-2.27;100.00;100274.95;109739;1250;67778;-68
2023/12/08 10:01:13;;;;;;;77.20;27.20;;;;;;;-2.29;100.00;100283.50;109444;1250;72594;-67
2023/12/08 10:03:59;;;;;;;67.70;25.50;;;;;;;-2.27;100.00;100288.67;109488;1251;57002;-67
2023/12/08 10:06:46;;;;;;;71.20;25.00;;;;;;;-2.29;100.00;100296.53;109584;1251;60274;-67
2023/12/08 10:09:35;;;;;;;74.80;26.70;;;;;;;-2.23;100.00;100288.42;109566;1250;73252;-68
2023/12/08 10:12:21;;;;;;;63.00;21.80;;;;;;;-2.18;100.00;100287.09;109605;1250;67894;-66
2023/12/08 10:15:10;;;;;;;75.10;26.50;;;;;;;-2.23;100.00;100283.39;109613;1250;72669;-67
2023/12/08 10:17:57;;;;;;;78.30;25.00;;;;;;;-2.21;100.00;100278.12;108839;1250;1002556;-68
2023/12/08 10:20:43;;;;;;;68.90;24.20;;;;;;;-2.22;100.00;100279.02;109693;1250;59054;-67
2023/12/08 10:23:30;;;;;;;73.20;26.60;;;;;;;-2.22;100.00;100285.11;108808;1251;1002299;-68
2023/12/08 10:26:17;;;;;;;76.30;27.70;;;;;;;-2.28;100.00;100293.92;109712;1250;66632;-68
2023/12/08 10:29:03;;;;;;;68.50;22.30;;;;;;;-2.35;100.00;100301.54;109666;1250;72751;-70
2023/12/08 10:31:50;;;;;;;75.30;27.60;;;;;;;-2.43;100.00;100313.86;108750;1251;1002120;-69
2023/12/08 10:34:39;;;;;;;66.00;22.90;;;;;;;-2.47;100.00;100317.06;109657;1250;60080;-67
2023/12/08 10:37:26;;;;;;;75.20;24.60;;;;;;;-2.52;100.00;100306.57;109670;1250;72167;-67
2023/12/08 10:40:17;;;;;;;67.10;27.00;;;;;;;-2.49;100.00;100299.39;109617;1250;67715;-68
2023/12/08 10:43:05;;;;;;;62.20;21.80;;;;;;;-2.47;100.00;100293.09;109623;1251;71318;-67
2023/12/08 10:45:55;;;;;;;74.30;25.20;;;;;;;-2.47;100.00;100297.61;109530;1250;56978;-67
2023/12/08 10:48:43;;;;;;;68.80;24.60;;;;;;;-2.53;100.00;100289.55;109494;1251;58765;-68
2023/12/08 10:51:30;;;;;;;77.10;25.80;;;;;;;-2.53;100.00;100286.61;109554;1251;73120;-68
2023/12/08 10:54:17;;;;;;;80.60;26.30;;;;;;;-2.50;100.00;100291.77;109585;1251;67663;-67
2023/12/08 10:57:04;;;;;;;66.90;23.90;;;;;;;-2.48;100.00;100287.54;109558;1250;72666;-68
2023/12/08 10:59:56;;;;;;;74.30;25.80;;;;;;;-2.47;100.00;100284.05;109584;1251;56988;-68
2023/12/08 11:02:48;;;;;;;74.90;26.70;;;;;;;-2.51;100.00;100282.56;109587;1251;61349;-71
2023/12/08 11:05:45;;;;;;;72.80;25.80;;;;;;;-2.58;100.00;100276.83;109518;1250;73255;-70
2023/12/08 11:08:33;;;;;;;70.60;24.00;;;;;;;-2.63;100.00;100276.04;109496;1251;66687;-69
2023/12/08 11:11:22;;;;;;;67.20;23.60;;;;;;;-2.64;100.00;100283.71;109509;1253;72291;-67
2023/12/08 11:14:18;;;;;;;74.00;24.10;;;;;;;-2.66;100.00;100274.89;109612;1251;59551;-68
2023/12/08 11:17:16;;;;;;;64.30;22.50;;;;;;;-2.65;100.00;100266.01;109612;1251;59013;-67
2023/12/08 11:20:05;;;;;;;70.90;24.30;;;;;;;-2.60;100.00;100260.16;109642;1251;70904;-66
2023/12/08 11:22:52;;;;;;;65.20;22.60;;;;;;;-2.57;100.00;100253.16;109581;1251;67887;-66
2023/12/08 11:25:47;;;;;;;69.90;24.20;;;;;;;-2.54;100.00;100260.74;109678;1250;71512;-67
2023/12/08 11:29:13;;;;;;;71.40;26.50;;;;;;;-2.57;100.00;100253.00;109629;1250;59146;-68
2023/12/08 11:32:09;;;;;;;63.80;22.00;;;;;;;-2.60;100.00;100239.13;108838;1250;1002855;-69
2023/12/08 11:35:09;;;;;;;70.20;24.90;;;;;;;-2.61;100.00;100221.80;109739;1250;72172;-68
2023/12/08 11:37:56;;;;;;;75.70;25.10;;;;;;;-2.59;100.00;100218.27;109614;1250;66337;-68
2023/12/08 11:40:55;;;;;;;71.90;23.80;;;;;;;-2.63;100.00;100210.89;108898;1250;1002786;-69
2023/12/08 11:43:45;;;;;;;78.20;25.30;;;;;;;-2.55;100.00;100227.74;108725;1251;1002331;-68
2023/12/08 11:46:34;;;;;;;64.80;23.90;;;;;;;-2.50;100.00;100237.20;109575;1250;61167;-71
2023/12/08 11:49:21;;;;;;;70.60;23.80;;;;;;;-2.46;100.00;100232.77;109725;1250;70696;-68
2023/12/08 11:52:14;;;;;;;68.80;22.70;;;;;;;-2.41;100.00;100218.23;109513;1251;67759;-69
2023/12/08 11:55:16;;;;;;;73.80;24.10;;;;;;;-2.44;100.00;100213.09;109647;1251;73638;-67
2023/12/08 11:58:17;;;;;;;69.50;24.20;;;;;;;-2.44;100.00;100220.39;108892;1250;1002281;-69
2023/12/08 12:01:03;;;;;;;65.60;23.10;;;;;;;-2.42;100.00;100216.86;109556;1250;58885;-66
2023/12/08 12:03:54;;;;;;;65.00;22.40;;;;;;;-2.37;100.00;100215.22;109691;1250;72273;-69
2023/12/08 12:06:43;;;;;;;65.80;23.80;;;;;;;-2.31;100.00;100214.91;109687;1250;66590;-66
2023/12/08 12:09:33;;;;;;;53.00;20.10;;;;;;;-2.27;100.00;100214.28;109435;1251;70805;-68
2023/12/08 12:12:28;;;;;;;60.50;21.90;;;;;;;-2.31;100.00;100210.38;109605;1250;56851;-69
2023/12/08 12:15:18;;;;;;;63.30;22.80;;;;;;;-2.34;100.00;100212.70;109567;1254;61189;-67
2023/12/08 12:18:05;;;;;;;62.20;22.70;;;;;;;-2.36;100.00;100215.36;108899;1250;1002930;-66
2023/12/08 12:20:52;;;;;;;64.20;24.00;;;;;;;-2.44;100.00;100221.95;109443;1250;66399;-66
2023/12/08 12:23:39;;;;;;;58.60;21.20;;;;;;;-2.57;100.00;100227.80;109695;1250;72519;-66
2023/12/08 12:26:25;;;;;;;57.00;20.90;;;;;;;-2.65;100.00;100230.75;109567;1250;59672;-67